Time;durP1;ratioP1;P1;durP2;ratioP2;P2;SDS_P1;SDS_P2;PMS_P1;PMS_P2;Temp;Humidity;BMP_temperature;BMP_pressure;BME280_temperature;BME280_humidity;BME280_pressure;Samples;Min_cycle;Max_cycle;Signal;HPM_P1;HPM_P2
2023/10/03 00:01:37;;;;;;;;;;;18.10;99.90;;;;;;5114899;28;19976;-43
2023/10/03 00:04:03;;;;;;;;;;;18.10;99.90;;;;;;5114805;28;20478;-42
2023/10/03 00:06:29;;;;;;;;;;;18.10;99.90;;;;;;5115171;28;19983;-43
2023/10/03 00:08:54;;;;;;;;;;;18.10;99.90;;;;;;5114874;28;19924;-42
2023/10/03 00:11:21;;;;;;;;;;;18.10;99.90;;;;;;5114804;28;20268;-42
2023/10/03 00:13:46;;;;;;;;;;;18.10;99.90;;;;;;5114869;28;19930;-42
2023/10/03 00:16:12;;;;;;;;;;;18.10;99.90;;;;;;5114682;28;19924;-42
2023/10/03 00:18:38;;;;;;;;;;;18.10;99.90;;;;;;5114709;28;19942;-43
2023/10/03 00:21:04;;;;;;;;;;;18.10;99.90;;;;;;5114706;28;19924;-43
2023/10/03 00:23:30;;;;;;;;;;;18.10;99.90;;;;;;5113799;28;19930;-42
2023/10/03 00:25:59;;;;;;;;;;;18.10;99.90;;;;;;5114636;28;20427;-43
2023/10/03 00:28:26;;;;;;;;;;;18.10;99.90;;;;;;5114809;28;19923;-43
2023/10/03 00:30:52;;;;;;;;;;;18.10;99.90;;;;;;5114436;28;19924;-42
2023/10/03 00:33:18;;;;;;;;;;;18.10;99.90;;;;;;5112471;28;19934;-43
2023/10/03 00:35:43;;;;;;;;;;;18.10;99.90;;;;;;5114532;28;20279;-42
2023/10/03 00:38:13;;;;;;;;;;;18.10;99.90;;;;;;5114559;28;19977;-43
2023/10/03 00:40:40;;;;;;;;;;;18.10;99.90;;;;;;5114746;28;19923;-42
2023/10/03 00:43:07;;;;;;;;;;;18.10;99.90;;;;;;5113614;28;19974;-43
2023/10/03 00:45:33;;;;;;;;;;;18.10;99.90;;;;;;5114379;28;19931;-42
2023/10/03 00:47:59;;;;;;;;;;;18.10;99.90;;;;;;5114281;28;19924;-43
2023/10/03 00:50:26;;;;;;;;;;;18.10;99.90;;;;;;5114440;28;19935;-43
2023/10/03 00:52:58;;;;;;;;;;;18.10;99.90;;;;;;5114438;28;19924;-42
2023/10/03 00:55:27;;;;;;;;;;;18.10;99.90;;;;;;5114276;28;19924;-43
2023/10/03 00:58:06;;;;;;;;;;;18.10;99.90;;;;;;5114402;28;19924;-42
2023/10/03 01:00:38;;;;;;;;;;;18.10;99.90;;;;;;5114316;28;19923;-43
2023/10/03 01:03:05;;;;;;;;;;;18.10;99.90;;;;;;5114604;28;19928;-42
2023/10/03 01:05:31;;;;;;;;;;;18.10;99.90;;;;;;5114291;28;19930;-43
2023/10/03 01:07:57;;;;;;;;;;;18.00;99.90;;;;;;5114150;28;19924;-43
2023/10/03 01:10:22;;;;;;;;;;;18.00;99.90;;;;;;5113943;28;19924;-43
2023/10/03 01:12:49;;;;;;;;;;;18.00;99.90;;;;;;5114128;28;19923;-43
2023/10/03 01:15:16;;;;;;;;;;;18.00;99.90;;;;;;5113890;28;19932;-42
2023/10/03 01:17:48;;;;;;;;;;;18.00;99.90;;;;;;5114130;28;19938;-43
2023/10/03 01:20:17;;;;;;;;;;;18.00;99.90;;;;;;5114067;28;19931;-43
2023/10/03 01:22:49;;;;;;;;;;;18.00;99.90;;;;;;5114405;28;19923;-43
2023/10/03 01:25:15;;;;;;;;;;;18.00;99.90;;;;;;5113980;28;19935;-42
2023/10/03 01:27:40;;;;;;;;;;;18.00;99.90;;;;;;5113815;28;20354;-42
2023/10/03 01:30:08;;;;;;;;;;;18.00;99.90;;;;;;5114363;28;19923;-42
2023/10/03 01:32:39;;;;;;;;;;;18.00;99.90;;;;;;5114087;28;19927;-43
2023/10/03 01:35:07;;;;;;;;;;;18.00;99.90;;;;;;5114149;28;19923;-43
2023/10/03 01:37:33;;;;;;;;;;;18.00;99.90;;;;;;5114046;28;20390;-42
2023/10/03 01:39:58;;;;;;;;;;;18.00;99.90;;;;;;5112983;28;19924;-43
2023/10/03 01:42:24;;;;;;;;;;;18.00;99.90;;;;;;5114023;28;19924;-43
2023/10/03 01:44:50;;;;;;;;;;;18.10;99.90;;;;;;5116978;28;19946;-42
2023/10/03 01:47:16;;;;;;;;;;;18.00;99.90;;;;;;5117524;27;19928;-42
2023/10/03 01:49:42;;;;;;;;;;;18.00;99.90;;;;;;5117564;28;19924;-43
2023/10/03 01:52:07;;;;;;;;;;;18.00;99.90;;;;;;5117515;28;19927;-42
2023/10/03 01:54:34;;;;;;;;;;;18.00;99.90;;;;;;5117389;28;19924;-43
2023/10/03 01:57:00;;;;;;;;;;;18.00;99.90;;;;;;5117757;28;19924;-43
2023/10/03 01:59:26;;;;;;;;;;;18.00;99.90;;;;;;5117303;28;19923;-43
2023/10/03 02:01:51;;;;;;;;;;;17.90;99.90;;;;;;5117304;28;19924;-43
2023/10/03 02:04:17;;;;;;;;;;;17.90;99.90;;;;;;5117070;28;19928;-42
2023/10/03 02:06:44;;;;;;;;;;;17.90;99.90;;;;;;5117281;28;19930;-42
2023/10/03 02:09:10;;;;;;;;;;;17.90;99.90;;;;;;5116973;27;19946;-43
2023/10/03 02:11:37;;;;;;;;;;;17.90;99.90;;;;;;5116865;28;19991;-43
2023/10/03 02:14:07;;;;;;;;;;;17.90;99.90;;;;;;5117219;28;19924;-42
2023/10/03 02:16:36;;;;;;;;;;;17.80;99.90;;;;;;5115931;28;20019;-43
2023/10/03 02:19:02;;;;;;;;;;;17.80;99.90;;;;;;5116904;28;20010;-42
2023/10/03 02:21:27;;;;;;;;;;;17.80;99.90;;;;;;5117157;27;20381;-43
2023/10/03 02:23:53;;;;;;;;;;;17.80;99.90;;;;;;5115545;28;19927;-43
2023/10/03 02:26:20;;;;;;;;;;;17.80;99.90;;;;;;5116901;28;19924;-42
2023/10/03 02:28:45;;;;;;;;;;;17.80;99.90;;;;;;5116893;28;19924;-45
2023/10/03 02:31:11;;;;;;;;;;;17.80;99.90;;;;;;5116676;28;19977;-43
2023/10/03 02:33:37;;;;;;;;;;;17.80;99.90;;;;;;5116674;28;19923;-42
2023/10/03 02:36:05;;;;;;;;;;;17.80;99.90;;;;;;5116485;27;19938;-43
2023/10/03 02:38:35;;;;;;;;;;;17.80;99.90;;;;;;5116378;28;20409;-42
2023/10/03 02:41:01;;;;;;;;;;;17.80;99.90;;;;;;5116700;28;19932;-42
2023/10/03 02:43:28;;;;;;;;;;;17.80;99.90;;;;;;5116484;28;19924;-42
2023/10/03 02:45:54;;;;;;;;;;;17.80;99.90;;;;;;5116457;28;19931;-42
2023/10/03 02:48:21;;;;;;;;;;;17.80;99.90;;;;;;5116510;28;19924;-42
2023/10/03 02:50:47;;;;;;;;;;;17.70;99.90;;;;;;5116421;28;19938;-42
2023/10/03 02:53:20;;;;;;;;;;;17.70;99.90;;;;;;5116258;28;19924;-42
2023/10/03 02:55:49;;;;;;;;;;;17.80;99.90;;;;;;5114236;28;19923;-42
2023/10/03 02:58:17;;;;;;;;;;;17.80;99.90;;;;;;5116162;28;19927;-43
2023/10/03 03:00:43;;;;;;;;;;;17.80;99.90;;;;;;5115464;28;19931;-42
2023/10/03 03:03:10;;;;;;;;;;;17.80;99.90;;;;;;5116182;28;19931;-42
2023/10/03 03:05:36;;;;;;;;;;;17.80;99.90;;;;;;5116068;28;19924;-42
2023/10/03 03:10:44;;;;;;;;;;;17.80;99.90;;;;;;5116003;28;19924;-43
2023/10/03 03:13:13;;;;;;;;;;;17.80;99.90;;;;;;5115932;27;19978;-43
2023/10/03 03:15:43;;;;;;;;;;;17.80;99.90;;;;;;5115616;28;19945;-42
2023/10/03 03:18:09;;;;;;;;;;;17.90;99.90;;;;;;5115721;28;20013;-42
2023/10/03 03:20:38;;;;;;;;;;;17.90;99.90;;;;;;5114608;28;19925;-42
2023/10/03 03:23:10;;;;;;;;;;;17.90;99.90;;;;;;5115785;28;20026;-42
2023/10/03 03:25:36;;;;;;;;;;;17.90;99.90;;;;;;5115479;28;20379;-43
2023/10/03 03:28:13;;;;;;;;;;;17.90;99.90;;;;;;5115758;28;19969;-42
2023/10/03 03:30:56;;;;;;;;;;;17.90;99.90;;;;;;5115346;28;19931;-44
2023/10/03 03:33:25;;;;;;;;;;;17.90;99.90;;;;;;5115733;28;19969;-43
2023/10/03 03:35:51;;;;;;;;;;;17.90;99.90;;;;;;5115561;28;20338;-42
2023/10/03 03:38:20;;;;;;;;;;;18.00;99.90;;;;;;5115703;28;19962;-43
2023/10/03 03:40:46;;;;;;;;;;;18.00;99.90;;;;;;5114909;27;19923;-43
2023/10/03 03:43:13;;;;;;;;;;;18.00;99.90;;;;;;5115163;28;19947;-43
2023/10/03 03:45:39;;;;;;;;;;;18.00;99.90;;;;;;5115314;28;19924;-43
2023/10/03 03:48:09;;;;;;;;;;;18.10;99.90;;;;;;5115341;28;19946;-43
2023/10/03 03:50:35;;;;;;;;;;;18.10;99.90;;;;;;5115362;28;19931;-42
2023/10/03 03:53:02;;;;;;;;;;;18.10;99.90;;;;;;5115160;28;19924;-43
2023/10/03 03:55:29;;;;;;;;;;;18.20;99.90;;;;;;5114906;28;20030;-43
2023/10/03 03:57:56;;;;;;;;;;;18.20;99.90;;;;;;5113661;28;19931;-43
2023/10/03 04:00:26;;;;;;;;;;;18.20;99.90;;;;;;5115035;28;19924;-42
2023/10/03 04:02:52;;;;;;;;;;;18.20;99.90;;;;;;5115184;28;19969;-43
2023/10/03 04:05:20;;;;;;;;;;;18.20;99.90;;;;;;5114995;28;19927;-42
2023/10/03 04:07:46;;;;;;;;;;;18.30;99.90;;;;;;5114691;28;20026;-43
2023/10/03 04:10:12;;;;;;;;;;;18.30;99.90;;;;;;5114706;28;19977;-43
2023/10/03 04:12:44;;;;;;;;;;;18.30;99.90;;;;;;5114865;28;20371;-42
2023/10/03 04:15:14;;;;;;;;;;;18.30;99.90;;;;;;5115309;28;19975;-43
2023/10/03 04:17:40;;;;;;;;;;;18.40;99.90;;;;;;5114673;28;19923;-43
2023/10/03 04:20:14;;;;;;;;;;;18.30;99.90;;;;;;5114758;28;19924;-43
2023/10/03 04:22:41;;;;;;;;;;;18.40;99.90;;;;;;5114957;28;20015;-43
2023/10/03 04:25:19;;;;;;;;;;;18.40;99.90;;;;;;5114392;28;19969;-42
2023/10/03 04:27:48;;;;;;;;;;;18.40;99.90;;;;;;5113862;28;19969;-43
2023/10/03 04:30:15;;;;;;;;;;;18.40;99.90;;;;;;5114579;28;20391;-42
2023/10/03 04:32:41;;;;;;;;;;;18.40;99.90;;;;;;5114586;28;19930;-43
2023/10/03 04:35:13;;;;;;;;;;;18.40;99.90;;;;;;5114615;28;20320;-43
2023/10/03 04:37:44;;;;;;;;;;;18.40;99.90;;;;;;5114463;28;19986;-44
2023/10/03 04:40:20;;;;;;;;;;;18.40;99.90;;;;;;5114657;28;19945;-42
2023/10/03 04:42:46;;;;;;;;;;;18.50;99.90;;;;;;5114595;28;19978;-45
2023/10/03 04:45:14;;;;;;;;;;;18.50;99.90;;;;;;5114510;28;19970;-43
2023/10/03 04:47:41;;;;;;;;;;;18.40;99.90;;;;;;5114266;28;20291;-42
2023/10/03 04:50:07;;;;;;;;;;;18.40;99.90;;;;;;5113444;28;19930;-42
2023/10/03 04:52:33;;;;;;;;;;;18.50;99.90;;;;;;5114531;28;19924;-43
2023/10/03 04:54:58;;;;;;;;;;;18.50;99.90;;;;;;5114308;28;20024;-44
2023/10/03 04:57:27;;;;;;;;;;;18.60;99.90;;;;;;5113323;28;19968;-42
2023/10/03 04:59:53;;;;;;;;;;;18.60;99.90;;;;;;5114441;28;19969;-42
2023/10/03 05:02:18;;;;;;;;;;;18.70;99.90;;;;;;5114312;28;20290;-43
2023/10/03 05:04:44;;;;;;;;;;;18.70;99.90;;;;;;5113965;28;20011;-44
2023/10/03 05:07:10;;;;;;;;;;;18.80;99.90;;;;;;5114529;28;19969;-43
2023/10/03 05:09:35;;;;;;;;;;;18.80;99.90;;;;;;5114405;28;19946;-45
2023/10/03 05:12:04;;;;;;;;;;;18.80;99.90;;;;;;5112797;28;20389;-43
2023/10/03 05:14:30;;;;;;;;;;;18.80;99.90;;;;;;5114350;28;19924;-42
2023/10/03 05:16:58;;;;;;;;;;;18.90;99.90;;;;;;5114037;28;20297;-42
2023/10/03 05:19:24;;;;;;;;;;;18.90;99.90;;;;;;5116592;28;19924;-41
2023/10/03 05:21:49;;;;;;;;;;;18.90;99.90;;;;;;5118115;28;19931;-42
2023/10/03 05:24:16;;;;;;;;;;;18.90;99.90;;;;;;5118117;28;19977;-42
2023/10/03 05:26:42;;;;;;;;;;;18.90;99.90;;;;;;5118093;28;20328;-42
2023/10/03 05:29:07;;;;;;;;;;;19.00;99.90;;;;;;5117021;28;19957;-42
2023/10/03 05:31:40;;;;;;;;;;;19.00;99.90;;;;;;5117810;28;19931;-43
2023/10/03 05:34:09;;;;;;;;;;;18.90;99.90;;;;;;5117914;28;20447;-43
2023/10/03 05:36:35;;;;;;;;;;;19.00;99.90;;;;;;5118149;28;19924;-42
2023/10/03 05:39:01;;;;;;;;;;;19.00;99.90;;;;;;5116879;28;19946;-42
2023/10/03 05:41:27;;;;;;;;;;;19.00;99.90;;;;;;5117821;28;20298;-42
2023/10/03 05:43:52;;;;;;;;;;;19.00;99.90;;;;;;5117732;28;19924;-41
2023/10/03 05:46:18;;;;;;;;;;;19.00;99.90;;;;;;5117323;28;20018;-42
2023/10/03 05:48:44;;;;;;;;;;;19.10;99.90;;;;;;5116698;28;19928;-43
2023/10/03 05:51:09;;;;;;;;;;;19.10;99.90;;;;;;5117564;27;19923;-42
2023/10/03 05:53:35;;;;;;;;;;;19.10;99.90;;;;;;5117451;28;20022;-43
2023/10/03 05:56:01;;;;;;;;;;;19.10;99.90;;;;;;5117436;28;19924;-42
2023/10/03 05:58:27;;;;;;;;;;;19.20;99.90;;;;;;5116110;28;19924;-42
2023/10/03 06:00:52;;;;;;;;;;;19.10;99.90;;;;;;5116237;28;19993;-42
2023/10/03 06:03:18;;;;;;;;;;;19.10;99.90;;;;;;5117172;28;20382;-42
2023/10/03 06:05:45;;;;;;;;;;;19.20;99.90;;;;;;5117599;28;19975;-42
2023/10/03 06:08:12;;;;;;;;;;;19.20;99.90;;;;;;5116356;28;19924;-42
2023/10/03 06:10:41;;;;;;;;;;;19.20;99.90;;;;;;5117099;28;20398;-43
2023/10/03 06:13:09;;;;;;;;;;;19.20;99.90;;;;;;5117151;28;19931;-42
2023/10/03 06:15:36;;;;;;;;;;;19.20;99.90;;;;;;5116874;28;19976;-42
2023/10/03 06:18:02;;;;;;;;;;;19.20;99.90;;;;;;5117050;28;19924;-42
2023/10/03 06:20:28;;;;;;;;;;;19.30;99.90;;;;;;5116631;27;19951;-44
2023/10/03 06:22:54;;;;;;;;;;;19.30;99.90;;;;;;5116956;28;20378;-42
2023/10/03 06:25:20;;;;;;;;;;;19.30;99.90;;;;;;5115971;28;19924;-42
2023/10/03 06:27:45;;;;;;;;;;;19.30;99.90;;;;;;5116700;28;19924;-42
2023/10/03 06:30:11;;;;;;;;;;;19.30;99.90;;;;;;5116691;28;19923;-42
2023/10/03 06:32:37;;;;;;;;;;;19.30;99.90;;;;;;5116818;28;19977;-42
2023/10/03 06:35:05;;;;;;;;;;;19.30;99.90;;;;;;5116700;28;19924;-42
2023/10/03 06:37:31;;;;;;;;;;;19.30;99.90;;;;;;5116766;28;20018;-42
2023/10/03 06:39:57;;;;;;;;;;;19.30;99.90;;;;;;5116464;28;19996;-42
2023/10/03 06:42:23;;;;;;;;;;;19.30;99.90;;;;;;5116503;28;19931;-42
2023/10/03 06:44:49;;;;;;;;;;;19.30;99.90;;;;;;5116267;28;19931;-43
2023/10/03 06:47:15;;;;;;;;;;;19.30;99.90;;;;;;5116142;28;19924;-42
2023/10/03 06:49:40;;;;;;;;;;;19.30;99.90;;;;;;5115666;28;20255;-42
2023/10/03 06:52:06;;;;;;;;;;;19.30;99.90;;;;;;5116362;28;19967;-41
2023/10/03 06:54:31;;;;;;;;;;;19.30;99.90;;;;;;5116234;28;19931;-42
2023/10/03 06:56:57;;;;;;;;;;;19.30;99.90;;;;;;5116141;28;20020;-42
2023/10/03 06:59:22;;;;;;;;;;;19.20;99.90;;;;;;5116259;28;20434;-42
2023/10/03 07:01:48;;;;;;;;;;;19.10;99.90;;;;;;5116283;28;20290;-43
2023/10/03 07:04:14;;;;;;;;;;;19.10;99.90;;;;;;5115055;28;20290;-42
2023/10/03 07:06:39;;;;;;;;;;;19.10;99.90;;;;;;5116083;28;19923;-42
2023/10/03 07:09:08;;;;;;;;;;;19.00;99.90;;;;;;5116085;28;19924;-43
2023/10/03 07:11:34;;;;;;;;;;;19.00;99.90;;;;;;5115139;28;20022;-42
2023/10/03 07:13:59;;;;;;;;;;;18.90;99.90;;;;;;5114757;28;20326;-43
2023/10/03 07:16:25;;;;;;;;;;;18.90;99.90;;;;;;5115878;28;19924;-42
2023/10/03 07:18:50;;;;;;;;;;;18.80;99.90;;;;;;5114968;28;19974;-43
2023/10/03 07:21:16;;;;;;;;;;;18.80;99.90;;;;;;5115761;28;19977;-42
2023/10/03 07:23:42;;;;;;;;;;;18.80;99.90;;;;;;5115642;28;19924;-42
2023/10/03 07:26:08;;;;;;;;;;;18.70;99.90;;;;;;5115563;28;19934;-42
2023/10/03 07:28:34;;;;;;;;;;;18.70;99.90;;;;;;5115471;28;19923;-42
2023/10/03 07:30:59;;;;;;;;;;;18.70;99.90;;;;;;5115673;28;19924;-42
2023/10/03 07:33:25;;;;;;;;;;;18.60;99.90;;;;;;5115575;28;20018;-42
2023/10/03 07:35:50;;;;;;;;;;;18.60;99.90;;;;;;5115751;28;20358;-42
2023/10/03 07:38:17;;;;;;;;;;;18.60;99.90;;;;;;5115349;28;20294;-42
2023/10/03 07:40:42;;;;;;;;;;;18.50;99.90;;;;;;5115194;28;19931;-42
2023/10/03 07:43:12;;;;;;;;;;;18.50;99.90;;;;;;5114919;28;20268;-42
2023/10/03 07:45:38;;;;;;;;;;;18.40;99.90;;;;;;5115382;28;19923;-42
2023/10/03 07:48:09;;;;;;;;;;;18.40;99.90;;;;;;5115298;28;19938;-42
2023/10/03 07:50:38;;;;;;;;;;;18.40;99.90;;;;;;5115242;28;19938;-42
2023/10/03 07:53:04;;;;;;;;;;;18.30;99.90;;;;;;5115217;28;20018;-41
2023/10/03 07:55:33;;;;;;;;;;;18.30;99.90;;;;;;5115171;28;19924;-42
2023/10/03 07:57:59;;;;;;;;;;;18.20;99.90;;;;;;5114562;28;19924;-42
2023/10/03 08:00:26;;;;;;;;;;;18.20;99.90;;;;;;5115208;28;19974;-42
2023/10/03 08:02:52;;;;;;;;;;;18.10;99.90;;;;;;5115098;28;19930;-42
2023/10/03 08:05:18;;;;;;;;;;;18.10;99.90;;;;;;5114170;28;19928;-42
2023/10/03 08:07:47;;;;;;;;;;;18.00;99.90;;;;;;5113926;28;19927;-42
2023/10/03 08:10:16;;;;;;;;;;;18.00;99.90;;;;;;5114767;28;19968;-42
2023/10/03 08:12:42;;;;;;;;;;;18.00;99.90;;;;;;5113717;28;19972;-42
2023/10/03 08:15:17;;;;;;;;;;;17.90;99.90;;;;;;5115140;28;20340;-42
2023/10/03 08:17:48;;;;;;;;;;;17.90;99.90;;;;;;5114838;28;19924;-42
2023/10/03 08:20:14;;;;;;;;;;;17.80;99.90;;;;;;5114745;28;19924;-43
2023/10/03 08:22:41;;;;;;;;;;;17.70;99.90;;;;;;5113658;28;19927;-43
2023/10/03 08:25:08;;;;;;;;;;;17.70;99.90;;;;;;5114725;28;19924;-42
2023/10/03 08:27:33;;;;;;;;;;;17.70;99.90;;;;;;5114724;28;19931;-42
2023/10/03 08:30:00;;;;;;;;;;;17.60;99.90;;;;;;5114687;28;19927;-42
2023/10/03 08:32:26;;;;;;;;;;;17.60;99.90;;;;;;5114668;28;19946;-42
2023/10/03 08:34:52;;;;;;;;;;;17.60;99.90;;;;;;5114282;28;19923;-42
2023/10/03 08:37:23;;;;;;;;;;;17.60;99.90;;;;;;5114329;28;19934;-42
2023/10/03 08:39:49;;;;;;;;;;;17.50;99.90;;;;;;5114675;28;20294;-42
2023/10/03 08:42:37;;;;;;;;;;;17.50;99.90;;;;;;5114344;28;20490;-42
2023/10/03 08:45:16;;;;;;;;;;;17.50;99.90;;;;;;5113681;28;20371;-42
2023/10/03 08:47:47;;;;;;;;;;;17.40;99.90;;;;;;5114502;28;20340;-43
2023/10/03 08:50:28;;;;;;;;;;;17.40;99.90;;;;;;5114545;28;19992;-42
2023/10/03 08:52:56;;;;;;;;;;;17.50;99.90;;;;;;5114509;28;19940;-42
2023/10/03 08:55:22;;;;;;;;;;;17.50;99.90;;;;;;5118537;28;20340;-41
2023/10/03 08:57:48;;;;;;;;;;;17.50;99.90;;;;;;5118465;28;20317;-45
2023/10/03 09:00:15;;;;;;;;;;;17.40;99.90;;;;;;5118520;28;19927;-42
2023/10/03 09:02:47;;;;;;;;;;;17.30;99.90;;;;;;5118516;28;19924;-42
2023/10/03 09:05:19;;;;;;;;;;;17.10;99.90;;;;;;5118849;28;19923;-41
2023/10/03 09:07:45;;;;;;;;;;;17.00;99.90;;;;;;5118437;28;19924;-41
2023/10/03 09:10:22;;;;;;;;;;;16.80;99.90;;;;;;5118187;28;19970;-41
2023/10/03 09:13:03;;;;;;;;;;;16.80;99.90;;;;;;5118228;28;20425;-41
2023/10/03 09:15:42;;;;;;;;;;;16.70;99.90;;;;;;5118387;28;20341;-41
2023/10/03 09:18:10;;;;;;;;;;;16.60;99.90;;;;;;5118296;28;19928;-41
2023/10/03 09:20:36;;;;;;;;;;;16.50;99.90;;;;;;5118377;28;20010;-41
2023/10/03 09:23:08;;;;;;;;;;;16.50;99.90;;;;;;5117963;28;20408;-41
2023/10/03 09:25:41;;;;;;;;;;;16.50;99.90;;;;;;5117888;28;19924;-42
2023/10/03 09:28:07;;;;;;;;;;;16.50;99.90;;;;;;5118269;28;19924;-41
2023/10/03 09:30:37;;;;;;;;;;;16.50;99.90;;;;;;5117981;28;19924;-42
2023/10/03 09:33:06;;;;;;;;;;;16.40;99.90;;;;;;5118105;28;19976;-42
2023/10/03 09:35:33;;;;;;;;;;;16.40;99.90;;;;;;5117879;28;19946;-42
2023/10/03 09:38:04;;;;;;;;;;;16.40;99.90;;;;;;5117758;28;19973;-41
2023/10/03 09:40:59;;;;;;;;;;;16.30;99.90;;;;;;5118272;28;19931;-42
2023/10/03 09:43:29;;;;;;;;;;;16.20;99.90;;;;;;5104101;28;19923;-42
2023/10/03 09:45:57;;;;;;;;;;;16.20;99.90;;;;;;5117519;28;20347;-41
2023/10/03 09:48:24;;;;;;;;;;;16.10;99.90;;;;;;5117350;28;20386;-41
2023/10/03 09:50:53;;;;;;;;;;;16.10;99.90;;;;;;5117646;28;19924;-41
2023/10/03 09:53:19;;;;;;;;;;;16.10;99.90;;;;;;5117526;28;19976;-41
2023/10/03 09:55:49;;;;;;;;;;;16.10;99.90;;;;;;5117458;28;20355;-40
2023/10/03 09:58:24;;;;;;;;;;;16.00;99.90;;;;;;5116916;28;19928;-41
2023/10/03 10:00:53;;;;;;;;;;;16.00;99.90;;;;;;5116249;28;19924;-42
2023/10/03 10:03:26;;;;;;;;;;;15.90;99.90;;;;;;5115922;28;20452;-42
2023/10/03 10:06:00;;;;;;;;;;;15.90;99.90;;;;;;5115644;28;19923;-42
2023/10/03 10:08:41;;;;;;;;;;;15.80;99.90;;;;;;5116059;28;19931;-42
2023/10/03 10:11:09;;;;;;;;;;;15.80;99.90;;;;;;5115820;28;19924;-41
2023/10/03 10:13:41;;;;;;;;;;;15.80;99.90;;;;;;5115834;28;19924;-42
2023/10/03 10:16:23;;;;;;;;;;;15.80;99.90;;;;;;5115875;28;20019;-41
2023/10/03 10:18:49;;;;;;;;;;;15.70;99.90;;;;;;5115843;28;20386;-42
2023/10/03 10:21:42;;;;;;;;;;;15.70;99.90;;;;;;5115826;28;20031;-42
2023/10/03 10:24:15;;;;;;;;;;;15.80;99.90;;;;;;5116235;28;19981;-43
2023/10/03 10:26:41;;;;;;;;;;;15.80;99.90;;;;;;5115945;28;19930;-41
2023/10/03 10:29:14;;;;;;;;;;;15.90;99.90;;;;;;5115652;28;19924;-42
2023/10/03 10:31:44;;;;;;;;;;;15.90;99.90;;;;;;5115711;28;19984;-41
2023/10/03 10:34:22;;;;;;;;;;;15.90;99.90;;;;;;5115598;28;19924;-42
2023/10/03 10:36:57;;;;;;;;;;;15.90;99.90;;;;;;5115786;28;19930;-42
2023/10/03 10:39:25;;;;;;;;;;;15.90;99.90;;;;;;5115685;28;20344;-42
2023/10/03 10:42:09;;;;;;;;;;;15.90;99.90;;;;;;5115373;28;20378;-41
2023/10/03 10:44:35;;;;;;;;;;;15.90;99.90;;;;;;5115363;28;19938;-42
2023/10/03 10:47:07;;;;;;;;;;;15.90;99.90;;;;;;5114540;28;19928;-41
2023/10/03 10:49:36;;;;;;;;;;;16.00;99.90;;;;;;5115891;28;19923;-41
2023/10/03 10:52:09;;;;;;;;;;;15.90;99.90;;;;;;5115350;28;19923;-42
2023/10/03 10:54:42;;;;;;;;;;;16.00;99.90;;;;;;5115460;28;20441;-42
2023/10/03 10:57:11;;;;;;;;;;;16.00;99.90;;;;;;5115093;28;19931;-42
2023/10/03 10:59:40;;;;;;;;;;;16.00;99.90;;;;;;5051951;28;1782633;-41
2023/10/03 11:02:28;;;;;;;;;;;16.10;99.90;;;;;;5116461;28;19923;-42
2023/10/03 11:04:54;;;;;;;;;;;16.10;99.90;;;;;;5116188;28;19923;-41
2023/10/03 11:07:21;;;;;;;;;;;16.10;99.90;;;;;;5115981;28;19923;-43
2023/10/03 11:09:48;;;;;;;;;;;16.10;99.90;;;;;;5115790;28;19924;-41
2023/10/03 11:12:21;;;;;;;;;;;16.10;99.90;;;;;;5116129;27;19928;-42
2023/10/03 11:14:47;;;;;;;;;;;16.10;99.90;;;;;;5116224;27;19947;-43
2023/10/03 11:17:15;;;;;;;;;;;16.10;99.90;;;;;;5114940;28;19924;-42
2023/10/03 11:19:41;;;;;;;;;;;16.10;99.90;;;;;;5115702;28;19931;-40
2023/10/03 11:22:07;;;;;;;;;;;16.10;99.90;;;;;;5114740;28;19924;-41
2023/10/03 11:24:38;;;;;;;;;;;16.10;99.90;;;;;;5114599;28;19935;-42
2023/10/03 11:27:03;;;;;;;;;;;16.10;99.90;;;;;;5115774;28;19928;-42
2023/10/03 11:29:38;;;;;;;;;;;16.20;99.90;;;;;;5115779;28;19928;-42
2023/10/03 11:32:04;;;;;;;;;;;16.20;99.90;;;;;;5115585;28;20394;-42
2023/10/03 11:34:31;;;;;;;;;;;16.20;99.90;;;;;;5115437;28;20042;-41
2023/10/03 11:36:58;;;;;;;;;;;16.10;99.90;;;;;;5115152;28;20416;-42
2023/10/03 11:39:23;;;;;;;;;;;16.20;99.90;;;;;;5115589;28;19923;-42
2023/10/03 11:41:49;;;;;;;;;;;16.20;99.90;;;;;;5115803;28;19969;-42
2023/10/03 11:44:19;;;;;;;;;;;16.20;99.90;;;;;;5115382;28;20320;-42
2023/10/03 11:46:46;;;;;;;;;;;16.30;99.90;;;;;;5115154;28;20420;-42
2023/10/03 11:49:13;;;;;;;;;;;16.30;99.90;;;;;;5115145;28;20375;-41
2023/10/03 11:51:42;;;;;;;;;;;16.30;99.90;;;;;;5115168;28;19924;-42
2023/10/03 11:54:08;;;;;;;;;;;16.30;99.90;;;;;;5115184;28;19934;-42
2023/10/03 11:56:40;;;;;;;;;;;16.30;99.90;;;;;;5115020;28;19931;-42
2023/10/03 11:59:06;;;;;;;;;;;16.30;99.90;;;;;;5115254;28;20371;-42
2023/10/03 12:01:32;;;;;;;;;;;16.30;99.90;;;;;;5114837;28;19938;-42
2023/10/03 12:03:57;;;;;;;;;;;16.30;99.90;;;;;;5114794;28;19924;-44
2023/10/03 12:06:23;;;;;;;;;;;16.30;99.90;;;;;;5115294;28;19932;-41
2023/10/03 12:08:49;;;;;;;;;;;16.20;99.90;;;;;;5115008;28;19978;-42
2023/10/03 12:11:16;;;;;;;;;;;16.20;99.90;;;;;;5114956;28;19924;-42
2023/10/03 12:13:41;;;;;;;;;;;16.20;99.90;;;;;;5114805;28;20374;-42
2023/10/03 12:16:07;;;;;;;;;;;16.20;99.90;;;;;;5114798;28;20072;-41
2023/10/03 12:18:32;;;;;;;;;;;16.20;99.90;;;;;;5114555;28;20299;-41
2023/10/03 12:20:58;;;;;;;;;;;16.00;99.90;;;;;;5114782;28;20012;-41
2023/10/03 12:23:24;;;;;;;;;;;15.90;99.90;;;;;;5114694;28;19931;-41
2023/10/03 12:25:49;;;;;;;;;;;15.90;99.90;;;;;;5114488;28;19931;-41
2023/10/03 12:28:17;;;;;;;;;;;15.80;99.90;;;;;;5114579;28;20014;-41
2023/10/03 12:30:42;;;;;;;;;;;15.70;99.90;;;;;;5114497;28;19923;-40
2023/10/03 12:33:11;;;;;;;;;;;15.70;99.90;;;;;;5114377;28;19928;-41
2023/10/03 12:35:40;;;;;;;;;;;15.70;99.90;;;;;;5114541;28;19923;-41
2023/10/03 12:38:06;;;;;;;;;;;15.70;99.90;;;;;;5113783;28;19923;-41
2023/10/03 12:40:31;;;;;;;;;;;15.70;99.90;;;;;;5114732;28;19930;-41
2023/10/03 12:42:57;;;;;;;;;;;15.80;99.90;;;;;;5114851;28;19924;-41
2023/10/03 12:45:24;;;;;;;;;;;15.80;99.90;;;;;;5114601;28;19978;-40
2023/10/03 12:47:53;;;;;;;;;;;16.00;99.90;;;;;;5114449;28;19923;-41
2023/10/03 12:50:25;;;;;;;;;;;16.00;99.90;;;;;;5130468;28;19924;-41
2023/10/03 12:52:51;;;;;;;;;;;16.10;99.90;;;;;;5114982;28;19924;-41
2023/10/03 12:55:18;;;;;;;;;;;16.10;99.90;;;;;;5114109;28;20466;-41
2023/10/03 12:57:46;;;;;;;;;;;16.10;99.90;;;;;;5114554;28;19924;-42
2023/10/03 13:00:12;;;;;;;;;;;16.20;99.90;;;;;;5114118;28;19931;-41
2023/10/03 13:02:40;;;;;;;;;;;16.20;99.90;;;;;;5114169;28;19927;-42
2023/10/03 13:05:06;;;;;;;;;;;16.20;99.90;;;;;;5114090;28;20390;-41
2023/10/03 13:07:35;;;;;;;;;;;16.20;99.90;;;;;;5113258;28;19923;-41
2023/10/03 13:10:04;;;;;;;;;;;16.20;99.90;;;;;;5114464;28;19924;-41
2023/10/03 13:12:30;;;;;;;;;;;16.20;99.90;;;;;;5114316;28;19924;-42
2023/10/03 13:14:56;;;;;;;;;;;16.20;99.90;;;;;;5114502;28;20027;-42
2023/10/03 13:17:22;;;;;;;;;;;16.30;99.90;;;;;;5113010;28;20405;-42
2023/10/03 13:19:48;;;;;;;;;;;16.30;99.90;;;;;;5114525;28;19928;-42
2023/10/03 13:22:14;;;;;;;;;;;16.30;99.90;;;;;;5114374;28;20268;-41
2023/10/03 13:24:39;;;;;;;;;;;16.30;99.90;;;;;;5114026;28;19924;-42
2023/10/03 13:27:05;;;;;;;;;;;16.40;99.90;;;;;;5114005;28;20006;-43
2023/10/03 13:29:32;;;;;;;;;;;16.40;99.90;;;;;;5113965;28;19923;-42
2023/10/03 13:31:58;;;;;;;;;;;16.50;99.90;;;;;;5112924;28;19923;-41
2023/10/03 13:34:25;;;;;;;;;;;16.50;99.90;;;;;;5114164;28;19924;-41
2023/10/03 13:36:53;;;;;;;;;;;16.50;99.90;;;;;;5113976;28;19931;-41
2023/10/03 13:39:19;;;;;;;;;;;16.50;99.90;;;;;;5114585;28;19980;-42
2023/10/03 13:41:45;;;;;;;;;;;16.60;99.90;;;;;;5117692;28;19924;-42
2023/10/03 13:44:11;;;;;;;;;;;16.60;99.90;;;;;;5117597;28;19949;-41
2023/10/03 13:46:40;;;;;;;;;;;16.60;99.90;;;;;;5116775;28;19924;-43
2023/10/03 13:49:10;;;;;;;;;;;16.60;99.90;;;;;;5117675;28;20271;-44
2023/10/03 13:51:36;;;;;;;;;;;16.60;99.90;;;;;;5117898;28;19928;-42
2023/10/03 13:54:03;;;;;;;;;;;16.60;99.90;;;;;;5117541;28;19931;-42
2023/10/03 13:56:34;;;;;;;;;;;16.70;99.90;;;;;;5099213;28;20014;-42
2023/10/03 13:59:02;;;;;;;;;;;16.70;99.90;;;;;;5117639;28;19930;-43
2023/10/03 14:01:29;;;;;;;;;;;16.80;99.90;;;;;;5117388;28;20374;-42
2023/10/03 14:03:56;;;;;;;;;;;16.90;99.90;;;;;;5117400;28;19924;-42
2023/10/03 14:06:22;;;;;;;;;;;16.90;99.90;;;;;;5117265;28;19924;-42
2023/10/03 14:08:48;;;;;;;;;;;16.90;99.90;;;;;;5117258;28;19928;-42
2023/10/03 14:11:20;;;;;;;;;;;16.90;99.90;;;;;;5117008;28;19927;-42
2023/10/03 14:13:48;;;;;;;;;;;16.90;99.90;;;;;;5116468;28;19924;-41
2023/10/03 14:16:14;;;;;;;;;;;16.80;99.90;;;;;;5117127;28;20466;-42
2023/10/03 14:18:40;;;;;;;;;;;16.80;99.90;;;;;;5117126;27;19959;-42
2023/10/03 14:21:10;;;;;;;;;;;16.80;99.90;;;;;;5116885;28;19931;-42
2023/10/03 14:23:40;;;;;;;;;;;16.80;99.90;;;;;;5117134;28;19924;-42